Time;durP1;ratioP1;P1;durP2;ratioP2;P2;SDS_P1;SDS_P2;PMS_P1;PMS_P2;Temp;Humidity;BMP_temperature;BMP_pressure;BME280_temperature;BME280_humidity;BME280_pressure;Samples;Min_cycle;Max_cycle;Signal;HPM_P1;HPM_P2
2022/07/31 00:01:47;;;;;;;4.18;3.97;;;;;;;24.69;89.18;99014.91;5072408;28;20699;-61
2022/07/31 00:04:14;;;;;;;4.70;4.30;;;;;;;24.68;87.73;99003.44;5072248;28;20203;-60
2022/07/31 00:06:42;;;;;;;3.67;3.47;;;;;;;24.60;87.71;99004.16;5072200;28;20583;-60
2022/07/31 00:09:10;;;;;;;4.15;3.95;;;;;;;24.46;92.38;98996.69;5072054;28;20196;-61
2022/07/31 00:11:37;;;;;;;4.75;4.40;;;;;;;24.45;96.04;99018.06;5072260;28;20279;-60
2022/07/31 00:14:05;;;;;;;4.10;3.85;;;;;;;24.34;97.11;99028.84;5072089;28;20579;-62
2022/07/31 00:16:32;;;;;;;4.40;4.05;;;;;;;24.37;96.85;99024.09;5055090;28;20561;-61
2022/07/31 00:18:59;;;;;;;3.85;3.65;;;;;;;24.40;94.19;99023.78;5051900;28;20227;-63
2022/07/31 00:21:26;;;;;;;4.50;4.05;;;;;;;24.43;94.52;99020.84;5051973;28;20586;-62
2022/07/31 00:23:53;;;;;;;4.13;3.92;;;;;;;24.43;98.29;99001.44;5052047;28;20189;-62
2022/07/31 00:26:21;;;;;;;4.35;4.15;;;;;;;24.65;96.40;99027.63;5051964;28;20677;-62
2022/07/31 00:28:48;;;;;;;4.30;4.10;;;;;;;24.60;97.06;99037.84;5051862;28;20603;-62
2022/07/31 00:31:17;;;;;;;4.90;4.50;;;;;;;24.58;96.72;99039.81;5051683;28;20197;-62
2022/07/31 00:33:44;;;;;;;4.55;4.28;;;;;;;24.46;97.10;99036.47;5051506;28;20282;-61
2022/07/31 00:36:11;;;;;;;5.00;4.60;;;;;;;24.33;99.15;99038.59;5051513;28;20231;-63
2022/07/31 00:38:38;;;;;;;4.60;4.30;;;;;;;24.23;99.74;99027.19;5051764;28;20604;-63
2022/07/31 00:41:04;;;;;;;4.55;4.25;;;;;;;24.27;99.30;99023.25;5051544;28;20201;-63
2022/07/31 00:43:33;;;;;;;4.70;4.50;;;;;;;24.30;100.00;99038.03;5051604;28;20234;-61
2022/07/31 00:46:00;;;;;;;4.05;3.75;;;;;;;24.16;100.00;99032.16;5051613;28;20203;-62
2022/07/31 00:48:27;;;;;;;5.10;4.80;;;;;;;24.09;100.00;99022.28;5051508;28;20287;-60
2022/07/31 00:50:54;;;;;;;5.60;4.97;;;;;;;24.15;100.00;99027.03;5051247;28;20215;-60
2022/07/31 00:53:21;;;;;;;4.75;4.30;;;;;;;24.16;100.00;99037.47;5051388;28;20794;-61
2022/07/31 00:55:47;;;;;;;4.88;4.57;;;;;;;24.02;100.00;99045.03;5051223;28;20193;-61
2022/07/31 00:58:14;;;;;;;4.30;4.05;;;;;;;23.94;100.00;99040.41;5051268;28;20215;-61
2022/07/31 01:00:43;;;;;;;4.45;4.13;;;;;;;23.89;100.00;99035.56;5051296;28;20684;-60
2022/07/31 01:03:10;;;;;;;4.80;4.53;;;;;;;23.70;100.00;99030.22;5051133;28;20277;-60
2022/07/31 01:05:36;;;;;;;4.88;4.50;;;;;;;23.61;100.00;99019.63;5051062;28;20310;-61
2022/07/31 01:08:04;;;;;;;4.15;3.95;;;;;;;23.61;100.00;99028.41;5051023;28;20207;-61
2022/07/31 01:10:45;;;;;;;5.47;5.07;;;;;;;23.59;100.00;99027.72;5051159;28;20201;-61
2022/07/31 01:13:20;;;;;;;4.40;4.00;;;;;;;23.65;100.00;99035.13;5050705;28;20228;-61
2022/07/31 01:15:50;;;;;;;4.97;4.57;;;;;;;23.75;100.00;99053.69;5050807;28;20196;-62
2022/07/31 01:18:18;;;;;;;4.55;4.35;;;;;;;23.66;100.00;99034.16;5050779;28;20197;-60
2022/07/31 01:20:49;;;;;;;4.90;4.60;;;;;;;23.66;100.00;99043.91;5050875;28;20644;-60
2022/07/31 01:23:35;;;;;;;5.18;4.82;;;;;;;23.73;100.00;99045.03;5050925;28;20196;-60
2022/07/31 01:26:16;;;;;;;4.78;4.57;;;;;;;23.82;100.00;99045.03;5050890;28;20220;-59
2022/07/31 01:29:06;;;;;;;7.70;7.10;;;;;;;23.86;100.00;99057.03;5050622;28;20205;-60
2022/07/31 01:31:37;;;;;;;4.43;4.18;;;;;;;23.85;100.00;99046.56;5050703;28;20202;-60
2022/07/31 01:34:11;;;;;;;6.70;6.20;;;;;;;23.89;100.00;99040.84;5050576;28;20592;-60
2022/07/31 01:36:44;;;;;;;6.82;6.30;;;;;;;23.92;100.00;99039.75;5050364;28;20197;-62
2022/07/31 01:39:12;;;;;;;12.07;11.10;;;;;;;23.83;100.00;99036.09;5050460;28;20238;-60
2022/07/31 01:41:43;;;;;;;7.15;6.63;;;;;;;23.62;100.00;99031.91;5050409;28;20693;-60
2022/07/31 01:44:15;;;;;;;8.32;7.55;;;;;;;23.37;100.00;99017.34;5070210;28;20229;-60
2022/07/31 01:46:43;;;;;;;10.43;9.63;;;;;;;23.33;100.00;99034.50;5070231;28;20195;-62
2022/07/31 01:49:13;;;;;;;9.68;8.98;;;;;;;23.26;100.00;99023.59;5070057;28;20242;-61
2022/07/31 01:51:43;;;;;;;11.07;10.05;;;;;;;23.21;100.00;99025.00;5070140;28;20202;-61
2022/07/31 01:54:11;;;;;;;10.10;8.80;;;;;;;23.17;100.00;99027.91;5070089;28;20224;-61
2022/07/31 01:56:40;;;;;;;12.60;11.40;;;;;;;23.12;100.00;99022.19;5070023;28;20196;-60
2022/07/31 01:59:09;;;;;;;11.25;9.35;;;;;;;22.92;100.00;98995.78;5070037;28;20207;-59
2022/07/31 02:01:39;;;;;;;11.13;10.05;;;;;;;23.07;100.00;99023.56;5070407;28;20226;-60
2022/07/31 02:04:07;;;;;;;10.02;9.23;;;;;;;22.91;100.00;99024.06;5069983;28;20203;-59
2022/07/31 02:06:35;;;;;;;9.00;8.40;;;;;;;22.82;100.00;99032.78;5070068;28;20206;-61
2022/07/31 02:09:02;;;;;;;8.10;7.60;;;;;;;22.66;100.00;99016.56;5066922;28;20621;-60
2022/07/31 02:11:30;;;;;;;8.73;8.13;;;;;;;22.66;100.00;99035.91;5063966;28;20735;-61
2022/07/31 02:13:57;;;;;;;8.57;7.93;;;;;;;22.62;100.00;99031.00;5069564;28;20331;-60
2022/07/31 02:16:26;;;;;;;7.82;7.22;;;;;;;22.55;100.00;99021.94;5069783;28;20249;-61
2022/07/31 02:18:57;;;;;;;7.85;7.25;;;;;;;22.42;100.00;99009.75;5069881;28;20196;-60
2022/07/31 02:21:24;;;;;;;8.65;7.93;;;;;;;22.53;100.00;99027.34;5070065;28;20204;-61
2022/07/31 02:23:51;;;;;;;7.70;7.10;;;;;;;22.51;100.00;99028.44;5070167;28;20681;-61
2022/07/31 02:26:20;;;;;;;7.20;6.60;;;;;;;22.57;100.00;99043.81;5069792;28;20702;-61
2022/07/31 02:28:48;;;;;;;7.88;7.38;;;;;;;22.52;100.00;99033.59;5069589;28;20198;-60
2022/07/31 02:31:17;;;;;;;8.73;6.90;;;;;;;22.46;100.00;99021.72;5069640;28;20235;-59
2022/07/31 02:33:46;;;;;;;7.78;7.00;;;;;;;22.50;100.00;99021.47;5069598;28;20224;-61
2022/07/31 02:36:17;;;;;;;7.63;6.90;;;;;;;22.44;100.00;99026.34;5069718;28;20196;-61
2022/07/31 02:38:46;;;;;;;7.85;7.25;;;;;;;22.48;100.00;99029.53;5069113;28;20208;-60
2022/07/31 02:41:15;;;;;;;7.75;6.97;;;;;;;22.26;100.00;99005.91;5069484;28;20203;-60
2022/07/31 02:43:44;;;;;;;8.30;7.50;;;;;;;22.34;100.00;99030.75;5066090;28;20580;-60
2022/07/31 02:46:12;;;;;;;7.68;7.18;;;;;;;22.29;100.00;99029.44;5057109;28;20201;-60
2022/07/31 02:48:40;;;;;;;8.75;6.80;;;;;;;22.29;100.00;99025.00;5058332;28;20210;-60
2022/07/31 02:51:08;;;;;;;8.40;7.20;;;;;;;22.28;100.00;99017.19;5059029;28;20200;-61
2022/07/31 02:53:37;;;;;;;7.80;7.07;;;;;;;22.27;100.00;99029.56;5054664;28;20216;-60
2022/07/31 02:56:08;;;;;;;7.97;7.07;;;;;;;22.27;100.00;99032.22;5057866;28;20203;-60
2022/07/31 02:58:35;;;;;;;7.38;6.72;;;;;;;22.34;100.00;99030.75;5055055;28;20645;-61
2022/07/31 03:01:04;;;;;;;6.78;6.30;;;;;;;22.36;100.00;99027.94;5058121;28;20196;-61
2022/07/31 03:03:31;;;;;;;7.07;6.35;;;;;;;22.16;100.00;99018.22;5058733;28;20686;-61
2022/07/31 03:05:58;;;;;;;6.32;5.72;;;;;;;22.16;100.00;99024.34;5057662;28;20682;-60
2022/07/31 03:08:25;;;;;;;6.65;6.10;;;;;;;22.21;100.00;99034.53;5057315;28;20223;-60
2022/07/31 03:10:53;;;;;;;6.65;6.15;;;;;;;22.22;100.00;99031.78;5059018;28;20188;-59
2022/07/31 03:13:24;;;;;;;6.85;6.28;;;;;;;22.25;100.00;99041.22;5057576;28;20236;-58
2022/07/31 03:15:52;;;;;;;6.70;6.18;;;;;;;22.23;100.00;99038.75;5057054;28;20575;-61
2022/07/31 03:18:20;;;;;;;9.23;6.13;;;;;;;22.22;100.00;99041.50;5058130;28;20200;-60
2022/07/31 03:20:50;;;;;;;5.63;5.30;;;;;;;22.22;100.00;99034.41;5058564;28;20205;-62
2022/07/31 03:23:19;;;;;;;6.88;6.28;;;;;;;22.27;100.00;99032.22;5054950;28;20291;-61
2022/07/31 03:25:50;;;;;;;7.28;6.60;;;;;;;22.33;100.00;99037.00;5057302;28;20595;-59
2022/07/31 03:28:19;;;;;;;6.78;6.28;;;;;;;22.34;100.00;99037.84;5055214;28;20200;-60
2022/07/31 03:30:46;;;;;;;6.30;5.90;;;;;;;22.37;100.00;99033.09;5057262;28;20200;-60
2022/07/31 03:33:13;;;;;;;6.45;5.85;;;;;;;22.36;100.00;99031.41;5058769;28;20196;-63
2022/07/31 03:35:40;;;;;;;6.13;5.63;;;;;;;22.36;100.00;99030.59;5041330;28;20273;-56
2022/07/31 03:38:07;;;;;;;6.22;5.82;;;;;;;22.40;100.00;99030.19;5028706;28;20225;-56
2022/07/31 03:40:34;;;;;;;6.47;5.78;;;;;;;22.35;100.00;99034.19;5028716;28;20347;-61
2022/07/31 03:43:03;;;;;;;5.93;5.63;;;;;;;22.32;100.00;99027.38;5028171;28;20221;-61
2022/07/31 03:45:34;;;;;;;8.05;6.18;;;;;;;22.47;100.00;99038.44;5028411;28;20304;-61
2022/07/31 03:48:01;;;;;;;9.68;5.93;;;;;;;22.55;100.00;99041.28;5028361;28;20305;-61
2022/07/31 03:50:28;;;;;;;6.50;6.00;;;;;;;22.62;100.00;99034.50;5028477;28;20224;-57
2022/07/31 03:52:57;;;;;;;6.60;5.85;;;;;;;22.83;100.00;99047.72;5032064;28;20217;-61
2022/07/31 03:55:24;;;;;;;11.32;6.63;;;;;;;22.96;100.00;99053.63;5031777;28;20304;-61
2022/07/31 03:57:52;;;;;;;6.95;6.25;;;;;;;23.09;100.00;99032.22;5031693;28;20610;-57
2022/07/31 04:00:21;;;;;;;6.65;6.00;;;;;;;23.70;100.00;99050.63;5049894;28;20240;-61
2022/07/31 04:02:50;;;;;;;6.68;6.18;;;;;;;24.50;100.00;99055.59;5055159;28;20652;-57
2022/07/31 04:05:16;;;;;;;7.28;6.50;;;;;;;25.26;96.33;99056.31;5051808;28;20216;-61
2022/07/31 04:07:43;;;;;;;7.10;6.60;;;;;;;26.09;89.89;99056.97;5051725;28;20278;-62
2022/07/31 04:10:11;;;;;;;8.90;8.20;;;;;;;26.93;84.41;99057.28;5051786;28;20217;-62
2022/07/31 04:12:38;;;;;;;5.82;5.43;;;;;;;27.80;78.80;99062.25;5050652;28;20225;-61
2022/07/31 04:15:06;;;;;;;5.97;5.22;;;;;;;28.79;73.07;99064.72;5051930;28;20224;-58
2022/07/31 04:17:33;;;;;;;6.30;5.85;;;;;;;29.17;70.21;99063.09;5054700;28;20249;-59
2022/07/31 04:20:01;;;;;;;5.88;5.25;;;;;;;29.99;66.22;99053.66;5061719;28;20201;-58
2022/07/31 04:22:28;;;;;;;7.85;6.03;;;;;;;30.76;63.74;99062.34;5060284;28;20199;-61
2022/07/31 04:24:55;;;;;;;6.10;5.70;;;;;;;31.56;60.20;99058.84;5061907;28;20195;-62
2022/07/31 04:27:22;;;;;;;6.85;6.05;;;;;;;32.55;57.02;99060.63;5061525;28;20197;-58
2022/07/31 04:29:49;;;;;;;6.78;6.32;;;;;;;33.24;54.31;99060.69;5060225;28;20216;-62
2022/07/31 04:32:16;;;;;;;7.03;6.38;;;;;;;33.79;52.57;99046.19;5061817;28;20192;-62
2022/07/31 04:34:43;;;;;;;6.90;6.40;;;;;;;34.22;51.21;99054.69;5061434;28;20218;-58
2022/07/31 04:37:11;;;;;;;6.20;5.60;;;;;;;33.49;52.23;99058.28;5059945;28;20191;-58
2022/07/31 04:39:38;;;;;;;5.57;5.28;;;;;;;33.82;50.37;99059.25;5060823;28;20192;-58
2022/07/31 04:42:06;;;;;;;8.52;5.72;;;;;;;33.96;50.93;99054.72;5054470;28;20700;-58
2022/07/31 04:44:32;;;;;;;5.25;4.82;;;;;;;34.59;48.45;99065.91;5051456;28;20243;-62
2022/07/31 04:47:00;;;;;;;5.30;4.90;;;;;;;34.92;47.70;99065.88;5051370;28;20215;-62
2022/07/31 04:49:27;;;;;;;5.35;5.05;;;;;;;34.74;47.53;99065.69;5052559;28;20562;-62
2022/07/31 04:51:54;;;;;;;5.65;5.15;;;;;;;34.94;46.73;99070.03;5060157;28;20204;-60
2022/07/31 04:54:22;;;;;;;4.40;4.20;;;;;;;35.37;45.09;99066.78;5061308;28;20211;-60
2022/07/31 04:56:49;;;;;;;7.43;4.78;;;;;;;35.84;44.23;99064.69;5064116;28;20279;-61
2022/07/31 04:59:19;;;;;;;5.55;5.20;;;;;;;35.67;44.14;99077.84;5068267;28;20196;-62
2022/07/31 05:01:47;;;;;;;5.75;5.22;;;;;;;35.65;44.32;99058.34;5047705;28;20258;-59
2022/07/31 05:04:14;;;;;;;4.88;4.57;;;;;;;35.42;45.25;99066.16;5060129;28;20211;-61
2022/07/31 05:06:42;;;;;;;4.57;4.28;;;;;;;36.26;42.93;99084.78;5058803;28;20649;-62
2022/07/31 05:09:12;;;;;;;5.45;5.05;;;;;;;36.88;41.26;99088.41;5060156;28;20192;-59
2022/07/31 05:11:41;;;;;;;5.22;4.70;;;;;;;37.39;39.68;99088.03;5060758;28;20197;-61
2022/07/31 05:14:10;;;;;;;5.15;4.60;;;;;;;37.97;39.18;99091.00;5056750;28;20596;-61
2022/07/31 05:16:37;;;;;;;5.35;4.95;;;;;;;37.57;39.08;99071.78;5059098;28;20191;-62
2022/07/31 05:19:05;;;;;;;5.95;5.47;;;;;;;37.95;39.10;99081.47;5060581;28;20188;-62
2022/07/31 05:21:32;;;;;;;4.80;4.45;;;;;;;37.70;39.04;99082.44;5059484;28;20668;-62
2022/07/31 05:24:01;;;;;;;4.38;4.07;;;;;;;38.01;38.56;99081.38;5058266;28;20300;-61
2022/07/31 05:26:29;;;;;;;4.47;4.18;;;;;;;38.36;37.22;99076.03;5056377;28;20319;-62
2022/07/31 05:28:59;;;;;;;3.92;3.72;;;;;;;38.30;37.51;99071.53;5058713;28;20207;-62
2022/07/31 05:31:27;;;;;;;4.22;3.92;;;;;;;38.45;36.63;99080.06;5056130;28;20196;-62
2022/07/31 05:33:54;;;;;;;4.38;3.92;;;;;;;38.12;36.93;99074.34;5059129;28;20218;-62
2022/07/31 05:36:21;;;;;;;4.68;3.95;;;;;;;38.66;35.99;99077.84;5062598;28;20202;-60
2022/07/31 05:38:49;;;;;;;4.30;4.10;;;;;;;39.19;35.57;99075.78;5070504;28;20664;-60
2022/07/31 05:41:16;;;;;;;4.28;3.90;;;;;;;39.15;34.78;99079.25;5070587;28;20196;-61
2022/07/31 05:43:43;;;;;;;4.20;3.72;;;;;;;38.87;35.75;99069.09;5070507;28;20221;-61
2022/07/31 05:46:13;;;;;;;4.22;3.83;;;;;;;39.07;34.55;99074.97;5070273;28;20283;-57
2022/07/31 05:48:41;;;;;;;6.07;5.10;;;;;;;39.67;33.70;99063.72;5070202;28;20287;-58
2022/07/31 05:51:10;;;;;;;4.72;4.43;;;;;;;39.85;33.60;99074.41;5068725;28;20211;-59
2022/07/31 05:53:41;;;;;;;6.45;3.83;;;;;;;39.60;33.57;99071.22;5060379;28;20195;-58
2022/07/31 05:56:09;;;;;;;4.43;4.07;;;;;;;39.23;34.05;99070.72;5060412;28;20591;-59
2022/07/31 05:58:36;;;;;;;4.20;4.00;;;;;;;38.31;35.53;99073.19;5059400;28;20204;-59
2022/07/31 06:01:04;;;;;;;3.70;3.50;;;;;;;37.55;37.05;99060.34;5063986;28;20206;-59
2022/07/31 06:03:34;;;;;;;4.00;3.53;;;;;;;37.91;36.75;99059.44;5054754;28;20283;-58
2022/07/31 06:06:03;;;;;;;3.97;3.78;;;;;;;37.75;36.39;99065.50;5058015;28;20191;-59
2022/07/31 06:08:32;;;;;;;5.07;3.70;;;;;;;37.13;37.47;99056.69;5051822;28;20219;-61
2022/07/31 06:10:59;;;;;;;4.00;3.80;;;;;;;36.78;38.05;99053.75;5058974;28;20224;-61
2022/07/31 06:13:27;;;;;;;3.67;3.53;;;;;;;36.58;38.54;99056.63;5056413;28;20236;-61
2022/07/31 06:15:54;;;;;;;3.92;3.67;;;;;;;37.06;37.99;99058.63;5059471;28;20657;-62
2022/07/31 06:18:21;;;;;;;3.90;3.70;;;;;;;37.79;36.93;99053.97;5051651;28;20273;-59
2022/07/31 06:20:50;;;;;;;3.17;3.08;;;;;;;38.08;35.30;99057.72;5066925;28;20233;-61
2022/07/31 06:23:17;;;;;;;3.60;3.50;;;;;;;38.27;34.67;99063.03;5061925;28;20216;-63
2022/07/31 06:25:44;;;;;;;4.80;4.50;;;;;;;38.08;34.70;99063.16;5049074;28;20593;-60
2022/07/31 06:28:11;;;;;;;4.50;4.10;;;;;;;37.77;35.53;99056.09;5053991;28;20223;-59
2022/07/31 06:30:37;;;;;;;6.88;6.50;;;;;;;38.13;35.07;99062.47;5056981;28;20421;-59
2022/07/31 06:33:04;;;;;;;5.35;4.93;;;;;;;37.46;36.23;99063.59;5053503;28;20200;-59
2022/07/31 06:35:31;;;;;;;6.07;5.35;;;;;;;37.19;36.56;99063.09;5056105;28;20237;-58
2022/07/31 06:38:00;;;;;;;5.55;5.15;;;;;;;37.70;35.66;99065.38;5056816;28;20645;-59
2022/07/31 06:40:27;;;;;;;5.60;4.47;;;;;;;38.44;34.58;99069.44;5056791;28;20201;-60
2022/07/31 06:42:53;;;;;;;4.78;4.50;;;;;;;37.64;36.31;99067.13;5058042;28;20195;-59
2022/07/31 06:45:20;;;;;;;5.68;4.90;;;;;;;37.79;36.40;99059.41;5056925;28;20195;-63
2022/07/31 06:47:47;;;;;;;4.88;4.47;;;;;;;38.10;36.12;99061.03;5057053;28;20218;-62
2022/07/31 06:50:14;;;;;;;6.85;5.20;;;;;;;38.28;35.41;99059.28;5058313;28;20196;-60
2022/07/31 06:52:42;;;;;;;4.97;4.57;;;;;;;38.52;35.43;99063.66;5057983;28;20191;-62
2022/07/31 06:55:10;;;;;;;5.68;5.22;;;;;;;38.57;35.18;99050.25;5058472;28;20624;-61
2022/07/31 06:57:38;;;;;;;7.18;6.78;;;;;;;38.31;34.89;99050.69;5053486;28;20191;-61
2022/07/31 07:00:07;;;;;;;6.15;5.63;;;;;;;38.00;35.62;99063.47;5056336;28;20237;-58
2022/07/31 07:02:35;;;;;;;5.03;4.82;;;;;;;38.13;35.67;99066.00;5047437;28;20239;-60
2022/07/31 07:05:02;;;;;;;7.38;6.15;;;;;;;37.95;35.93;99062.50;5045890;28;20201;-60
2022/07/31 07:07:29;;;;;;;6.43;5.82;;;;;;;37.57;36.18;99036.56;5042132;28;20231;-60
2022/07/31 07:09:55;;;;;;;6.35;5.72;;;;;;;36.73;37.26;99065.25;5048420;28;20203;-61
2022/07/31 07:12:24;;;;;;;8.38;7.80;;;;;;;36.55;38.25;99057.09;5045641;28;20207;-61
2022/07/31 07:14:51;;;;;;;7.50;6.90;;;;;;;37.06;37.69;99061.34;5044008;28;20239;-62
2022/07/31 07:17:17;;;;;;;7.35;6.95;;;;;;;36.67;38.07;99060.72;5048324;28;20201;-61
2022/07/31 07:19:44;;;;;;;8.05;7.53;;;;;;;36.99;38.06;99061.44;5048271;28;20684;-61
2022/07/31 07:22:11;;;;;;;7.82;7.20;;;;;;;36.94;37.64;99065.84;5048137;28;20207;-61
2022/07/31 07:24:38;;;;;;;12.32;11.48;;;;;;;36.70;38.03;99062.16;5048495;28;20648;-61
2022/07/31 07:27:05;;;;;;;9.15;8.43;;;;;;;36.56;39.33;99052.50;5052042;28;20287;-61
2022/07/31 07:29:33;;;;;;;9.23;8.50;;;;;;;36.58;39.92;99053.91;5051982;28;20287;-60
2022/07/31 07:32:00;;;;;;;8.25;7.60;;;;;;;37.10;39.57;99054.44;5051890;28;20232;-61
2022/07/31 07:34:27;;;;;;;7.05;6.60;;;;;;;37.37;38.79;99053.06;5051947;28;20736;-61
2022/07/31 07:36:54;;;;;;;6.90;6.50;;;;;;;37.88;38.38;99059.06;5051816;28;20204;-61
2022/07/31 07:39:21;;;;;;;9.50;8.80;;;;;;;38.03;37.46;99051.34;5051723;28;20197;-60
2022/07/31 07:41:48;;;;;;;7.70;6.55;;;;;;;37.99;37.87;99053.69;5052076;28;20688;-62
2022/07/31 07:44:15;;;;;;;7.88;7.07;;;;;;;37.31;39.29;99051.28;5051876;28;20215;-60
2022/07/31 07:46:44;;;;;;;8.05;7.30;;;;;;;37.06;39.74;99047.81;5051720;28;20200;-61
2022/07/31 07:49:11;;;;;;;8.18;7.43;;;;;;;37.07;40.09;99041.34;5051691;28;20223;-60
2022/07/31 07:51:38;;;;;;;8.38;6.80;;;;;;;37.84;38.91;99055.97;5051557;28;20203;-60
2022/07/31 07:54:04;;;;;;;8.20;7.65;;;;;;;38.42;37.65;99053.41;5051396;28;20290;-61
2022/07/31 07:56:31;;;;;;;8.88;8.27;;;;;;;39.17;35.68;99061.63;5051494;28;20219;-61
2022/07/31 07:58:59;;;;;;;7.53;7.13;;;;;;;39.17;34.87;99055.38;5051410;28;20576;-62
2022/07/31 08:01:27;;;;;;;7.82;7.07;;;;;;;39.65;34.80;99057.69;5051924;28;20200;-62
2022/07/31 08:03:55;;;;;;;8.20;7.53;;;;;;;39.50;35.09;99047.41;5052305;28;20286;-62
2022/07/31 08:06:22;;;;;;;7.68;7.13;;;;;;;39.76;34.47;99034.25;5051955;28;20672;-61
2022/07/31 08:08:50;;;;;;;9.45;7.25;;;;;;;40.58;33.36;99051.69;5052123;28;20287;-62
2022/07/31 08:11:17;;;;;;;7.30;6.88;;;;;;;40.22;33.59;99039.41;5052204;28;20192;-60
2022/07/31 08:13:44;;;;;;;7.75;7.03;;;;;;;40.61;33.25;99051.22;5052059;28;20232;-60
2022/07/31 08:16:11;;;;;;;7.38;7.03;;;;;;;40.50;33.15;99048.59;5052252;28;20234;-61
2022/07/31 08:18:38;;;;;;;7.10;6.57;;;;;;;40.70;32.41;99054.34;5052083;28;20574;-60
2022/07/31 08:21:06;;;;;;;6.65;6.35;;;;;;;40.63;32.51;99048.25;5052004;28;20575;-61
2022/07/31 08:23:33;;;;;;;7.30;6.72;;;;;;;41.23;31.99;99055.59;5051749;28;20196;-61
2022/07/31 08:26:00;;;;;;;7.28;6.55;;;;;;;41.18;31.76;99052.84;5052069;28;20354;-61
2022/07/31 08:28:27;;;;;;;7.68;7.00;;;;;;;40.76;32.24;99030.72;5051816;28;20196;-60
2022/07/31 08:30:54;;;;;;;6.80;6.40;;;;;;;40.49;32.57;99041.50;5051716;28;20287;-60
2022/07/31 08:33:21;;;;;;;7.95;7.28;;;;;;;40.02;32.99;99024.69;5051672;28;20192;-61
2022/07/31 08:35:49;;;;;;;7.88;6.97;;;;;;;39.85;33.75;99035.53;5051858;28;20725;-60
2022/07/31 08:38:18;;;;;;;7.35;6.80;;;;;;;39.78;33.25;99016.63;5051134;28;20196;-60
2022/07/31 08:40:45;;;;;;;7.03;6.63;;;;;;;39.55;33.47;99039.31;5051916;28;20299;-61
2022/07/31 08:43:13;;;;;;;7.15;6.60;;;;;;;38.84;34.90;99039.72;5051747;28;20200;-63
2022/07/31 08:45:41;;;;;;;7.43;6.85;;;;;;;38.43;35.64;99035.25;5051480;28;20279;-64
2022/07/31 08:48:09;;;;;;;7.32;6.82;;;;;;;37.89;36.66;99033.63;5051335;28;20210;-62
2022/07/31 08:50:39;;;;;;;7.55;7.05;;;;;;;37.51;37.37;99023.09;5053944;28;20196;-62
2022/07/31 08:53:08;;;;;;;8.00;7.40;;;;;;;36.95;38.27;99024.22;5051507;28;20200;-61
2022/07/31 08:55:37;;;;;;;7.07;6.63;;;;;;;36.71;38.01;99013.25;5050595;28;20224;-62
2022/07/31 08:58:05;;;;;;;8.63;7.80;;;;;;;36.72;38.05;99006.78;5050001;28;20219;-61
2022/07/31 09:00:33;;;;;;;7.70;7.25;;;;;;;37.07;37.91;99022.41;5049614;28;20289;-60
2022/07/31 09:03:00;;;;;;;8.02;7.53;;;;;;;37.22;37.73;99019.34;5049772;28;20204;-61
2022/07/31 09:05:27;;;;;;;7.60;7.03;;;;;;;37.32;37.63;99015.03;5051036;28;20196;-62
2022/07/31 09:07:54;;;;;;;7.95;7.40;;;;;;;36.83;38.63;99021.44;5059770;28;20298;-60
2022/07/31 09:10:23;;;;;;;7.90;7.50;;;;;;;36.76;37.59;98992.81;5060727;28;20283;-61
2022/07/31 09:12:51;;;;;;;8.18;7.60;;;;;;;36.76;37.98;99015.28;5060355;28;20192;-61
2022/07/31 09:15:23;;;;;;;8.18;7.68;;;;;;;37.15;37.66;99013.97;5059189;28;20653;-62
2022/07/31 09:17:51;;;;;;;8.95;8.00;;;;;;;37.16;38.50;99006.72;5060164;28;20202;-60
2022/07/31 09:20:20;;;;;;;9.25;8.65;;;;;;;36.94;38.98;99007.16;5061437;28;20204;-62
2022/07/31 09:22:52;;;;;;;9.65;8.98;;;;;;;37.23;39.06;99004.75;5060208;28;20258;-62
2022/07/31 09:25:19;;;;;;;10.85;9.43;;;;;;;37.51;37.91;98993.31;5059253;28;20197;-62
2022/07/31 09:27:47;;;;;;;9.45;8.75;;;;;;;37.84;37.05;98995.56;5060598;28;20192;-61
2022/07/31 09:30:15;;;;;;;8.38;7.82;;;;;;;37.47;36.98;98989.44;5060583;28;20196;-62
2022/07/31 09:32:44;;;;;;;8.88;8.32;;;;;;;37.32;37.73;98979.03;5056662;28;20202;-61
2022/07/31 09:35:13;;;;;;;9.20;8.70;;;;;;;37.58;37.25;98988.66;5059862;28;20361;-59
2022/07/31 09:37:40;;;;;;;9.52;8.80;;;;;;;37.85;36.00;98960.09;5061103;28;20191;-60
2022/07/31 09:40:09;;;;;;;8.85;8.27;;;;;;;38.17;35.86;98981.47;5059441;28;20199;-60
2022/07/31 09:42:39;;;;;;;11.27;10.27;;;;;;;38.49;35.25;98983.59;5059366;28;20752;-60
2022/07/31 09:45:19;;;;;;;12.50;9.68;;;;;;;38.79;34.58;98979.94;5057028;28;20280;-60
2022/07/31 09:47:46;;;;;;;7.53;7.13;;;;;;;38.96;33.39;98982.69;5057078;28;20606;-60
2022/07/31 09:50:13;;;;;;;7.32;6.93;;;;;;;39.02;33.15;98969.03;5059187;28;20192;-60
2022/07/31 09:52:40;;;;;;;7.90;7.38;;;;;;;39.24;33.58;98966.47;5060168;28;20202;-60
2022/07/31 09:55:10;;;;;;;7.45;7.03;;;;;;;39.13;32.90;98968.16;5059339;28;20188;-60
2022/07/31 09:57:38;;;;;;;6.97;6.68;;;;;;;39.00;33.64;98963.03;5058861;28;20561;-59
2022/07/31 10:00:08;;;;;;;7.30;6.75;;;;;;;38.64;33.32;98966.03;5056860;28;20615;-61
2022/07/31 10:02:39;;;;;;;7.85;7.28;;;;;;;38.59;33.82;98961.34;5059071;28;20278;-60
2022/07/31 10:05:07;;;;;;;6.47;6.18;;;;;;;38.18;33.39;98940.59;5057963;28;20187;-60
2022/07/31 10:07:38;;;;;;;7.15;6.65;;;;;;;38.04;33.27;98961.66;5058945;28;20188;-61
2022/07/31 10:10:07;;;;;;;16.13;14.85;;;;;;;38.04;33.81;98942.66;5058275;28;20195;-61
2022/07/31 10:12:40;;;;;;;9.90;9.27;;;;;;;37.88;33.54;98950.69;5056731;28;20271;-59
2022/07/31 10:15:11;;;;;;;7.38;6.72;;;;;;;37.68;34.06;98949.13;5058291;28;20194;-61
2022/07/31 10:17:45;;;;;;;6.18;5.80;;;;;;;37.62;33.79;98946.53;5059047;28;20192;-62
2022/07/31 10:20:17;;;;;;;6.32;5.82;;;;;;;37.59;33.49;98930.69;5055820;28;20234;-61
2022/07/31 10:22:47;;;;;;;6.78;6.40;;;;;;;37.61;33.01;98942.13;5058315;28;20195;-60
2022/07/31 10:25:20;;;;;;;5.63;5.28;;;;;;;37.52;34.24;98933.53;5056427;28;20196;-60
2022/07/31 10:27:47;;;;;;;5.88;5.47;;;;;;;37.39;34.19;98934.53;5057988;28;20202;-60
2022/07/31 10:30:14;;;;;;;5.30;5.10;;;;;;;37.23;34.16;98929.81;5059394;28;20210;-60
2022/07/31 10:32:43;;;;;;;5.18;4.75;;;;;;;37.03;33.98;98929.19;5059716;28;20196;-59
2022/07/31 10:35:11;;;;;;;5.78;5.28;;;;;;;36.86;34.66;98929.03;5058112;28;20192;-61
2022/07/31 10:37:45;;;;;;;5.57;5.28;;;;;;;36.75;34.69;98926.25;5059109;28;20686;-61
2022/07/31 10:40:24;;;;;;;4.40;4.20;;;;;;;36.62;34.03;98921.81;5055649;28;20192;-61
2022/07/31 10:43:01;;;;;;;5.20;4.90;;;;;;;36.33;34.48;98912.59;5060372;28;20206;-60
2022/07/31 10:45:30;;;;;;;4.85;4.65;;;;;;;36.24;34.90;98928.25;5060259;28;20719;-61
2022/07/31 10:48:01;;;;;;;5.40;4.70;;;;;;;36.21;34.79;98908.94;5056658;28;20637;-61
2022/07/31 10:50:29;;;;;;;5.03;4.82;;;;;;;35.98;34.81;98909.59;5062309;28;20196;-60
2022/07/31 10:53:07;;;;;;;4.60;4.40;;;;;;;35.83;34.88;98915.31;5063002;28;20218;-60
2022/07/31 10:55:34;;;;;;;5.15;4.85;;;;;;;35.40;35.61;98909.00;5062843;28;20200;-61
2022/07/31 10:58:08;;;;;;;5.28;4.88;;;;;;;35.15;36.87;98903.50;5062639;28;20293;-60
2022/07/31 11:00:36;;;;;;;5.25;4.95;;;;;;;35.15;36.96;98903.50;5054600;28;20583;-61
2022/07/31 11:03:15;;;;;;;5.43;5.13;;;;;;;34.94;37.34;98901.97;5057982;28;20698;-64
2022/07/31 11:05:53;;;;;;;6.13;5.78;;;;;;;34.72;37.45;98895.22;5061547;28;20330;-61
2022/07/31 11:08:20;;;;;;;5.28;4.93;;;;;;;34.59;36.53;98901.47;5054073;28;20192;-60
2022/07/31 11:10:52;;;;;;;5.53;5.22;;;;;;;34.49;38.06;98903.81;5056091;28;20215;-60
2022/07/31 11:13:21;;;;;;;5.93;5.55;;;;;;;34.59;38.91;98899.63;5053432;28;20256;-60
2022/07/31 11:15:51;;;;;;;7.22;6.82;;;;;;;34.68;37.95;98884.03;5056357;28;20982;-60
2022/07/31 11:18:21;;;;;;;6.97;6.57;;;;;;;34.88;36.96;98892.03;5066986;28;20188;-59
2022/07/31 11:20:59;;;;;;;4.40;4.20;;;;;;;34.97;36.36;98888.06;5066928;28;20279;-60
2022/07/31 11:23:30;;;;;;;4.30;4.10;;;;;;;34.56;36.47;98888.44;5066234;28;20593;-61
2022/07/31 11:26:00;;;;;;;6.25;5.95;;;;;;;34.68;36.46;98896.66;5063672;28;20214;-61
2022/07/31 11:28:27;;;;;;;4.32;4.03;;;;;;;34.85;35.60;98887.94;5062645;28;20195;-61
2022/07/31 11:30:55;;;;;;;5.30;5.00;;;;;;;34.76;36.34;98875.75;5061387;28;20204;-61
2022/07/31 11:33:38;;;;;;;5.10;4.70;;;;;;;34.90;35.59;98887.25;5062752;28;20202;-61
2022/07/31 11:36:07;;;;;;;5.10;4.80;;;;;;;34.97;35.84;98881.84;5060551;28;20379;-61
2022/07/31 11:38:34;;;;;;;5.20;4.70;;;;;;;34.62;35.67;98859.81;5061155;28;20208;-60